ADDS METAR Data INFO
IDs: Format: Raw Decoded Include TAF

Data at: 2055 UTC 24 Jun 2017

KCNW 242055Z 10003KT 10SM BKN025 27/22 A3008
KCNW 241955Z 11006KT 10SM SCT035 27/22 A3006
KCNW 241855Z 03011KT 10SM SCT010 24/22 A3009
KCNW 241755Z 03011KT 10SM SCT040 24/22 A3012
KCNW 241655Z 03011KT 7SM BKN008 OVC025 23/22 A3015
KCNW 241555Z 03011KT 7SM BKN040 OVC050 22/21 A3015
KCNW 241455Z 03011KT 7SM BKN040 OVC050 22/21 A3014
KCNW 241355Z 03005KT 7SM BKN040 OVC050 22/21 A3006
KCNW 241255Z 13005KT 7SM OVC008 21/20 A3007
KCNW 240355Z 13003KT 10SM SKC 29/24 A2988
KCNW 240255Z 13004KT 10SM SKC 31/23 A2984
KCNW 240155Z 13006KT 10SM SKC 32/23 A2982
KCNW 240055Z 12007KT 10SM SKC 34/23 A2979
KCNW 232355Z 12007KT 10SM SCT055 35/23 A2978
KCNW 232255Z 12004KT 10SM CLR 37/21 A2977
KCNW 232155Z 14005KT 10 CLR 38/2 A2978
KCNW 232055Z 14005KT 10 CLR 37/21 A2979
KCNW 231955Z 17006KT 10 CLR 37/22 A2979
KCNW 231855Z 17006G15KT 10 CLR 35/23 A2980
KCNW 231755Z 17006G15KT 10 CLR 34/23 A2981
KCNW 231655Z 17006KT 10 CLR 33/23 A2981
KCNW 231555Z 17006KT 10 CLR 30/23 A2980
KCNW 231455Z 17006KT 10 CLR 30/23 A2982
KCNW 231255Z 17006KT 5 BR BKN007 25/24 A2978
KCNW 231155Z 17006KT 5 BR OVC008 25/24 A2975


Page loaded:  20:55 UTC  |   01:55 PM Pacific  |   02:55 PM Mountain  |   03:55 PM Central  |   04:55 PM Eastern

 

ADVISORIES

FORECASTS

FORECASTS

OBSERVATIONS

USER TOOLS

ABOUT US